sensor_id;sensor_type;location;lat;lon;timestamp;pressure;altitude;pressure_sealevel;temperature;humidity
80401;BME280;69727;53.132;8.230;2023-05-28T00:02:05;102284.38;;;11.10;76.23
80401;BME280;69727;53.132;8.230;2023-05-28T00:04:33;102283.47;;;11.08;76.71
80401;BME280;69727;53.132;8.230;2023-05-28T00:06:59;102282.59;;;11.06;76.69
80401;BME280;69727;53.132;8.230;2023-05-28T00:09:24;102275.53;;;11.05;76.62
80401;BME280;69727;53.132;8.230;2023-05-28T00:11:50;102272.00;;;11.03;76.66
80401;BME280;69727;53.132;8.230;2023-05-28T00:14:15;102273.78;;;11.04;77.17
80401;BME280;69727;53.132;8.230;2023-05-28T00:16:41;102275.50;;;10.97;76.63
80401;BME280;69727;53.132;8.230;2023-05-28T00:19:08;102273.75;;;10.97;76.89
80401;BME280;69727;53.132;8.230;2023-05-28T00:21:34;102277.28;;;10.95;77.00
80401;BME280;69727;53.132;8.230;2023-05-28T00:24:00;102276.41;;;10.93;77.23
80401;BME280;69727;53.132;8.230;2023-05-28T00:26:26;102271.09;;;10.90;77.33
80401;BME280;69727;53.132;8.230;2023-05-28T00:28:52;102269.31;;;10.89;77.60
80401;BME280;69727;53.132;8.230;2023-05-28T00:31:18;102273.75;;;10.90;77.64
80401;BME280;69727;53.132;8.230;2023-05-28T00:33:43;102271.09;;;10.85;77.66
80401;BME280;69727;53.132;8.230;2023-05-28T00:36:09;102278.16;;;10.83;78.14
80401;BME280;69727;53.132;8.230;2023-05-28T00:38:36;102269.28;;;10.79;78.21
80401;BME280;69727;53.132;8.230;2023-05-28T00:41:01;102271.06;;;10.77;78.82
80401;BME280;69727;53.132;8.230;2023-05-28T00:43:27;102278.13;;;10.75;78.73
80401;BME280;69727;53.132;8.230;2023-05-28T00:45:53;102275.47;;;10.75;79.34
80401;BME280;69727;53.132;8.230;2023-05-28T00:48:22;102271.91;;;10.72;79.13
80401;BME280;69727;53.132;8.230;2023-05-28T00:50:48;102269.25;;;10.69;79.45
80401;BME280;69727;53.132;8.230;2023-05-28T00:53:14;102271.03;;;10.68;79.64
80401;BME280;69727;53.132;8.230;2023-05-28T00:55:39;102274.53;;;10.66;79.69
80401;BME280;69727;53.132;8.230;2023-05-28T00:58:05;102284.25;;;10.65;79.80
80401;BME280;69727;53.132;8.230;2023-05-28T01:00:36;102274.53;;;10.66;80.00
80401;BME280;69727;53.132;8.230;2023-05-28T01:03:02;102258.66;;;10.62;80.14
80401;BME280;69727;53.132;8.230;2023-05-28T01:05:29;102263.94;;;10.61;80.23
80401;BME280;69727;53.132;8.230;2023-05-28T01:07:59;102258.63;;;10.56;79.97
80401;BME280;69727;53.132;8.230;2023-05-28T01:10:26;102260.38;;;10.54;80.48
80401;BME280;69727;53.132;8.230;2023-05-28T01:12:52;102257.75;;;10.54;80.88
80401;BME280;69727;53.132;8.230;2023-05-28T01:15:18;102265.66;;;10.50;80.80
80401;BME280;69727;53.132;8.230;2023-05-28T01:17:43;102262.16;;;10.49;81.38
80401;BME280;69727;53.132;8.230;2023-05-28T01:20:10;102263.03;;;10.51;81.94
80401;BME280;69727;53.132;8.230;2023-05-28T01:22:40;102256.88;;;10.57;81.84
80401;BME280;69727;53.132;8.230;2023-05-28T01:25:12;102260.38;;;10.51;81.67
80401;BME280;69727;53.132;8.230;2023-05-28T01:27:41;102257.72;;;10.46;81.91
80401;BME280;69727;53.132;8.230;2023-05-28T01:30:08;102251.53;;;10.40;81.98
80401;BME280;69727;53.132;8.230;2023-05-28T01:32:39;102252.38;;;10.37;81.97
80401;BME280;69727;53.132;8.230;2023-05-28T01:35:06;102246.22;;;10.37;82.59
80401;BME280;69727;53.132;8.230;2023-05-28T01:37:36;102247.06;;;10.33;82.73
80401;BME280;69727;53.132;8.230;2023-05-28T01:40:03;102247.06;;;10.33;82.67
80401;BME280;69727;53.132;8.230;2023-05-28T01:42:33;102244.38;;;10.29;83.10
80401;BME280;69727;53.132;8.230;2023-05-28T01:44:59;102243.50;;;10.31;83.29
80401;BME280;69727;53.132;8.230;2023-05-28T01:47:26;102245.28;;;10.27;83.26
80401;BME280;69727;53.132;8.230;2023-05-28T01:49:52;102237.31;;;10.22;83.28
80401;BME280;69727;53.132;8.230;2023-05-28T01:52:18;102243.47;;;10.23;83.37
80401;BME280;69727;53.132;8.230;2023-05-28T01:54:43;102234.66;;;10.18;83.46
80401;BME280;69727;53.132;8.230;2023-05-28T01:57:09;102247.00;;;10.19;83.31
80401;BME280;69727;53.132;8.230;2023-05-28T01:59:35;102251.38;;;10.18;83.61
80401;BME280;69727;53.132;8.230;2023-05-28T02:02:01;102251.38;;;10.18;83.59
80401;BME280;69727;53.132;8.230;2023-05-28T02:04:26;102251.38;;;10.18;83.66
80401;BME280;69727;53.132;8.230;2023-05-28T02:06:51;102245.22;;;10.18;83.78
80401;BME280;69727;53.132;8.230;2023-05-28T02:09:17;102252.28;;;10.17;83.70
80401;BME280;69727;53.132;8.230;2023-05-28T02:11:42;102247.84;;;10.16;83.90
80401;BME280;69727;53.132;8.230;2023-05-28T02:14:08;102251.38;;;10.15;83.76
80401;BME280;69727;53.132;8.230;2023-05-28T02:16:34;102247.84;;;10.12;83.94
80401;BME280;69727;53.132;8.230;2023-05-28T02:19:00;102250.47;;;10.13;83.99
80401;BME280;69727;53.132;8.230;2023-05-28T02:21:26;102241.66;;;10.08;84.04
80401;BME280;69727;53.132;8.230;2023-05-28T02:23:53;102248.69;;;10.09;83.79
80401;BME280;69727;53.132;8.230;2023-05-28T02:26:19;102244.28;;;10.08;84.00
80401;BME280;69727;53.132;8.230;2023-05-28T02:28:45;102241.66;;;10.08;83.97
80401;BME280;69727;53.132;8.230;2023-05-28T02:31:11;102255.72;;;10.04;84.01
80401;BME280;69727;53.132;8.230;2023-05-28T02:33:40;102255.72;;;10.02;83.90
80401;BME280;69727;53.132;8.230;2023-05-28T02:36:09;102253.94;;;10.01;84.33
80401;BME280;69727;53.132;8.230;2023-05-28T02:38:38;102254.81;;;9.99;83.91
80401;BME280;69727;53.132;8.230;2023-05-28T02:41:03;102250.38;;;9.96;83.49
80401;BME280;69727;53.132;8.230;2023-05-28T02:43:29;102249.50;;;9.94;83.91
80401;BME280;69727;53.132;8.230;2023-05-28T02:45:54;102244.19;;;9.91;84.00
80401;BME280;69727;53.132;8.230;2023-05-28T02:48:20;102245.91;;;9.89;83.82
80401;BME280;69727;53.132;8.230;2023-05-28T02:50:45;102238.88;;;9.85;83.88
80401;BME280;69727;53.132;8.230;2023-05-28T02:53:11;102244.16;;;9.85;83.85
80401;BME280;69727;53.132;8.230;2023-05-28T02:55:36;102237.09;;;9.84;84.22
80401;BME280;69727;53.132;8.230;2023-05-28T02:58:01;102237.06;;;9.81;83.99
80401;BME280;69727;53.132;8.230;2023-05-28T03:00:28;102234.41;;;9.79;84.37
80401;BME280;69727;53.132;8.230;2023-05-28T03:02:54;102238.81;;;9.77;84.44
80401;BME280;69727;53.132;8.230;2023-05-28T03:05:19;102237.94;;;9.77;84.11
80401;BME280;69727;53.132;8.230;2023-05-28T03:07:45;102242.31;;;9.74;84.35
80401;BME280;69727;53.132;8.230;2023-05-28T03:10:10;102235.28;;;9.73;84.27
80401;BME280;69727;53.132;8.230;2023-05-28T03:12:36;102239.66;;;9.71;84.32
80401;BME280;69727;53.132;8.230;2023-05-28T03:15:01;102236.13;;;9.71;84.59
80401;BME280;69727;53.132;8.230;2023-05-28T03:17:27;102240.53;;;9.69;84.26
80401;BME280;69727;53.132;8.230;2023-05-28T03:19:52;102248.44;;;9.69;83.97
80401;BME280;69727;53.132;8.230;2023-05-28T03:22:19;102246.72;;;9.74;84.70
80401;BME280;69727;53.132;8.230;2023-05-28T03:24:44;102237.03;;;9.74;84.36
80401;BME280;69727;53.132;8.230;2023-05-28T03:27:10;102256.44;;;9.78;84.69
80401;BME280;69727;53.132;8.230;2023-05-28T03:29:35;102255.56;;;9.82;84.58
80401;BME280;69727;53.132;8.230;2023-05-28T03:32:00;102251.19;;;9.83;84.30
80401;BME280;69727;53.132;8.230;2023-05-28T03:34:26;102248.56;;;9.83;84.19
80401;BME280;69727;53.132;8.230;2023-05-28T03:36:51;102245.03;;;9.87;84.13
80401;BME280;69727;53.132;8.230;2023-05-28T03:39:17;102243.28;;;9.90;83.88
80401;BME280;69727;53.132;8.230;2023-05-28T03:41:43;102243.31;;;9.95;83.95
80401;BME280;69727;53.132;8.230;2023-05-28T03:44:11;102245.13;;;9.99;83.74
80401;BME280;69727;53.132;8.230;2023-05-28T03:46:37;102231.03;;;10.02;83.93
80401;BME280;69727;53.132;8.230;2023-05-28T03:49:02;102232.81;;;10.07;83.45
80401;BME280;69727;53.132;8.230;2023-05-28T03:51:27;102231.09;;;10.09;83.65
80401;BME280;69727;53.132;8.230;2023-05-28T03:53:53;102233.75;;;10.14;83.58
80401;BME280;69727;53.132;8.230;2023-05-28T03:56:19;102232.88;;;10.18;83.31
80401;BME280;69727;53.132;8.230;2023-05-28T03:58:45;102239.06;;;10.22;82.93
80401;BME280;69727;53.132;8.230;2023-05-28T04:01:10;102237.34;;;10.27;82.92
80401;BME280;69727;53.132;8.230;2023-05-28T04:03:36;102228.50;;;10.29;82.79
80401;BME280;69727;53.132;8.230;2023-05-28T04:06:04;102235.63;;;10.37;82.62
80401;BME280;69727;53.132;8.230;2023-05-28T04:08:30;102218.94;;;10.42;82.59
80401;BME280;69727;53.132;8.230;2023-05-28T04:10:55;102221.59;;;10.50;82.38
80401;BME280;69727;53.132;8.230;2023-05-28T04:13:21;102230.44;;;10.63;82.54
80401;BME280;69727;53.132;8.230;2023-05-28T04:15:47;102219.91;;;10.72;82.11
80401;BME280;69727;53.132;8.230;2023-05-28T04:18:12;102221.66;;;10.79;82.16
80401;BME280;69727;53.132;8.230;2023-05-28T04:20:38;102221.69;;;10.89;81.58
80401;BME280;69727;53.132;8.230;2023-05-28T04:23:03;102233.16;;;10.97;81.53
80401;BME280;69727;53.132;8.230;2023-05-28T04:25:28;102222.56;;;11.00;81.46
80401;BME280;69727;53.132;8.230;2023-05-28T04:27:55;102226.13;;;11.02;80.97
80401;BME280;69727;53.132;8.230;2023-05-28T04:30:22;102227.00;;;11.07;80.80
80401;BME280;69727;53.132;8.230;2023-05-28T04:32:48;102227.88;;;11.11;80.29
80401;BME280;69727;53.132;8.230;2023-05-28T04:35:16;102233.19;;;11.14;80.17
80401;BME280;69727;53.132;8.230;2023-05-28T04:37:42;102241.13;;;11.17;80.09
80401;BME280;69727;53.132;8.230;2023-05-28T04:40:07;102233.19;;;11.20;80.04
80401;BME280;69727;53.132;8.230;2023-05-28T04:42:37;102227.91;;;11.26;79.50
80401;BME280;69727;53.132;8.230;2023-05-28T04:45:03;102242.00;;;11.31;80.08
80401;BME280;69727;53.132;8.230;2023-05-28T04:47:29;102250.88;;;11.40;79.73
80401;BME280;69727;53.132;8.230;2023-05-28T04:49:54;102237.63;;;11.44;79.38
80401;BME280;69727;53.132;8.230;2023-05-28T04:52:22;102232.31;;;11.52;79.12
80401;BME280;69727;53.132;8.230;2023-05-28T04:54:48;102244.66;;;11.56;78.94
80401;BME280;69727;53.132;8.230;2023-05-28T04:57:13;102242.88;;;11.60;78.87
80401;BME280;69727;53.132;8.230;2023-05-28T04:59:39;102243.78;;;11.63;78.52
80401;BME280;69727;53.132;8.230;2023-05-28T05:02:05;102237.59;;;11.67;78.18
80401;BME280;69727;53.132;8.230;2023-05-28T05:04:30;102234.94;;;11.72;78.18
80401;BME280;69727;53.132;8.230;2023-05-28T05:06:56;102235.81;;;11.76;77.73
80401;BME280;69727;53.132;8.230;2023-05-28T05:09:21;102233.19;;;11.79;77.82
80401;BME280;69727;53.132;8.230;2023-05-28T05:11:48;102238.44;;;11.88;78.05
80401;BME280;69727;53.132;8.230;2023-05-28T05:14:14;102234.91;;;11.98;77.63
80401;BME280;69727;53.132;8.230;2023-05-28T05:16:39;102242.81;;;12.14;77.26
80401;BME280;69727;53.132;8.230;2023-05-28T05:19:05;102233.03;;;12.31;76.22
80401;BME280;69727;53.132;8.230;2023-05-28T05:21:31;102236.53;;;12.42;76.50
80401;BME280;69727;53.132;8.230;2023-05-28T05:23:57;102247.06;;;12.56;75.81
80401;BME280;69727;53.132;8.230;2023-05-28T05:26:22;102254.97;;;12.69;74.62
80401;BME280;69727;53.132;8.230;2023-05-28T05:28:48;102257.59;;;12.73;74.96
80401;BME280;69727;53.132;8.230;2023-05-28T05:31:13;102251.41;;;12.79;74.35
80401;BME280;69727;53.132;8.230;2023-05-28T05:33:40;102250.47;;;12.80;74.21
80401;BME280;69727;53.132;8.230;2023-05-28T05:36:07;102245.19;;;12.80;74.05
80401;BME280;69727;53.132;8.230;2023-05-28T05:38:33;102242.50;;;12.82;73.52
80401;BME280;69727;53.132;8.230;2023-05-28T05:40:58;102237.22;;;12.80;73.33
80401;BME280;69727;53.132;8.230;2023-05-28T05:43:24;102258.44;;;12.82;73.39
80401;BME280;69727;53.132;8.230;2023-05-28T05:45:49;102252.28;;;12.79;73.77
80401;BME280;69727;53.132;8.230;2023-05-28T05:48:15;102248.72;;;12.80;73.39
80401;BME280;69727;53.132;8.230;2023-05-28T05:50:48;102249.59;;;12.86;73.63
80401;BME280;69727;53.132;8.230;2023-05-28T05:53:14;102254.03;;;12.84;73.80
80401;BME280;69727;53.132;8.230;2023-05-28T05:55:40;102253.13;;;12.82;73.92
80401;BME280;69727;53.132;8.230;2023-05-28T05:58:05;102251.34;;;12.85;73.72
80401;BME280;69727;53.132;8.230;2023-05-28T06:00:31;102253.97;;;12.90;73.63
80401;BME280;69727;53.132;8.230;2023-05-28T06:02:56;102261.88;;;12.99;73.66
80401;BME280;69727;53.132;8.230;2023-05-28T06:05:21;102261.81;;;13.10;73.39
80401;BME280;69727;53.132;8.230;2023-05-28T06:07:47;102268.81;;;13.23;72.91
80401;BME280;69727;53.132;8.230;2023-05-28T06:10:12;102266.09;;;13.37;72.57
80401;BME280;69727;53.132;8.230;2023-05-28T06:12:38;102266.00;;;13.48;72.25
80401;BME280;69727;53.132;8.230;2023-05-28T06:15:03;102271.13;;;13.65;71.33
80401;BME280;69727;53.132;8.230;2023-05-28T06:17:30;102268.41;;;13.74;70.46
80401;BME280;69727;53.132;8.230;2023-05-28T06:19:56;102275.38;;;13.86;70.84
80401;BME280;69727;53.132;8.230;2023-05-28T06:22:22;102269.88;;;14.04;69.99
80401;BME280;69727;53.132;8.230;2023-05-28T06:24:47;102261.72;;;14.18;69.21
80401;BME280;69727;53.132;8.230;2023-05-28T06:27:14;102262.47;;;14.33;68.66
80401;BME280;69727;53.132;8.230;2023-05-28T06:29:40;102262.31;;;14.45;68.12
80401;BME280;69727;53.132;8.230;2023-05-28T06:32:06;102256.81;;;14.60;67.96
80401;BME280;69727;53.132;8.230;2023-05-28T06:34:32;102259.22;;;14.79;67.13
80401;BME280;69727;53.132;8.230;2023-05-28T06:36:57;102258.09;;;14.97;67.11
80401;BME280;69727;53.132;8.230;2023-05-28T06:39:23;102256.00;;;15.18;66.93
80401;BME280;69727;53.132;8.230;2023-05-28T06:41:48;102251.19;;;15.41;65.92
80401;BME280;69727;53.132;8.230;2023-05-28T06:44:14;102262.44;;;15.59;65.53
80401;BME280;69727;53.132;8.230;2023-05-28T06:46:39;102265.75;;;15.72;65.30
80401;BME280;69727;53.132;8.230;2023-05-28T06:49:05;102268.28;;;15.81;65.07
80401;BME280;69727;53.132;8.230;2023-05-28T06:51:30;102270.09;;;15.80;64.50
80401;BME280;69727;53.132;8.230;2023-05-28T06:53:56;102275.47;;;15.77;64.35
80401;BME280;69727;53.132;8.230;2023-05-28T06:56:21;102280.06;;;15.67;64.84
80401;BME280;69727;53.132;8.230;2023-05-28T06:58:47;102280.22;;;15.58;65.16
80401;BME280;69727;53.132;8.230;2023-05-28T07:01:14;102278.44;;;15.59;65.60
80401;BME280;69727;53.132;8.230;2023-05-28T07:03:39;102280.75;;;15.80;64.84
80401;BME280;69727;53.132;8.230;2023-05-28T07:06:05;102276.72;;;16.06;64.16
80401;BME280;69727;53.132;8.230;2023-05-28T07:08:31;102271.97;;;16.64;62.60
80401;BME280;69727;53.132;8.230;2023-05-28T07:10:56;102280.69;;;17.51;60.48
80401;BME280;69727;53.132;8.230;2023-05-28T07:13:21;102287.88;;;18.17;57.64
80401;BME280;69727;53.132;8.230;2023-05-28T07:15:47;102290.22;;;18.61;55.49
80401;BME280;69727;53.132;8.230;2023-05-28T07:18:12;102281.94;;;18.99;54.38
80401;BME280;69727;53.132;8.230;2023-05-28T07:20:38;102276.22;;;19.38;53.35
80401;BME280;69727;53.132;8.230;2023-05-28T07:23:04;102278.44;;;19.52;51.24
80401;BME280;69727;53.132;8.230;2023-05-28T07:25:30;102283.81;;;19.78;50.07
80401;BME280;69727;53.132;8.230;2023-05-28T07:28:02;102286.84;;;19.94;49.48
80401;BME280;69727;53.132;8.230;2023-05-28T07:30:27;102284.59;;;20.07;49.09
80401;BME280;69727;53.132;8.230;2023-05-28T07:32:53;102290.00;;;20.31;48.27
80401;BME280;69727;53.132;8.230;2023-05-28T07:35:18;102286.75;;;20.46;47.98
80401;BME280;69727;53.132;8.230;2023-05-28T07:37:43;102290.53;;;20.66;47.49
80401;BME280;69727;53.132;8.230;2023-05-28T07:40:09;102279.63;;;20.93;46.72
80401;BME280;69727;53.132;8.230;2023-05-28T07:42:35;102277.56;;;20.99;46.24
80401;BME280;69727;53.132;8.230;2023-05-28T07:45:01;102284.13;;;21.14;46.06
80401;BME280;69727;53.132;8.230;2023-05-28T07:47:26;102278.81;;;21.35;45.51
80401;BME280;69727;53.132;8.230;2023-05-28T07:49:52;102279.63;;;21.59;45.39
80401;BME280;69727;53.132;8.230;2023-05-28T07:52:17;102272.78;;;21.50;45.32
80401;BME280;69727;53.132;8.230;2023-05-28T07:54:43;102283.63;;;21.04;46.00
80401;BME280;69727;53.132;8.230;2023-05-28T07:57:08;102272.47;;;20.69;46.87
80401;BME280;69727;53.132;8.230;2023-05-28T07:59:33;102282.72;;;20.34;49.52
80401;BME280;69727;53.132;8.230;2023-05-28T08:01:59;102279.44;;;20.01;49.56
80401;BME280;69727;53.132;8.230;2023-05-28T08:04:25;102279.44;;;19.74;49.81
80401;BME280;69727;53.132;8.230;2023-05-28T08:06:51;102282.72;;;19.57;50.86
80401;BME280;69727;53.132;8.230;2023-05-28T08:09:16;102276.56;;;19.27;51.06
80401;BME280;69727;53.132;8.230;2023-05-28T08:11:43;102283.09;;;19.18;50.37
80401;BME280;69727;53.132;8.230;2023-05-28T08:14:09;102286.16;;;19.07;50.88
80401;BME280;69727;53.132;8.230;2023-05-28T08:16:34;102279.78;;;19.10;51.48
80401;BME280;69727;53.132;8.230;2023-05-28T08:19:00;102281.56;;;19.11;51.91
80401;BME280;69727;53.132;8.230;2023-05-28T08:21:26;102282.56;;;19.07;51.32
80401;BME280;69727;53.132;8.230;2023-05-28T08:23:54;102287.06;;;19.06;51.25
80401;BME280;69727;53.132;8.230;2023-05-28T08:26:20;102277.16;;;19.08;50.48
80401;BME280;69727;53.132;8.230;2023-05-28T08:28:46;102284.00;;;19.19;49.62
80401;BME280;69727;53.132;8.230;2023-05-28T08:31:12;102288.38;;;19.21;48.08
80401;BME280;69727;53.132;8.230;2023-05-28T08:33:38;102287.56;;;19.19;47.70
80401;BME280;69727;53.132;8.230;2023-05-28T08:36:03;102280.31;;;19.21;47.73
80401;BME280;69727;53.132;8.230;2023-05-28T08:38:29;102282.59;;;19.34;48.03
80401;BME280;69727;53.132;8.230;2023-05-28T08:40:55;102282.09;;;19.49;46.98
80401;BME280;69727;53.132;8.230;2023-05-28T08:43:22;102278.19;;;19.59;47.00
80401;BME280;69727;53.132;8.230;2023-05-28T08:45:50;102285.81;;;19.72;46.37
80401;BME280;69727;53.132;8.230;2023-05-28T08:48:16;102288.31;;;19.78;46.02
80401;BME280;69727;53.132;8.230;2023-05-28T08:50:48;102287.28;;;19.82;46.47
80401;BME280;69727;53.132;8.230;2023-05-28T08:53:19;102274.44;;;19.90;46.70
80401;BME280;69727;53.132;8.230;2023-05-28T08:55:45;102280.22;;;20.05;46.27
80401;BME280;69727;53.132;8.230;2023-05-28T08:58:11;102281.63;;;20.15;47.34
80401;BME280;69727;53.132;8.230;2023-05-28T09:00:37;102274.09;;;20.25;45.54
80401;BME280;69727;53.132;8.230;2023-05-28T09:03:03;102282.78;;;20.33;46.24
80401;BME280;69727;53.132;8.230;2023-05-28T09:05:36;102268.16;;;20.40;45.87
80401;BME280;69727;53.132;8.230;2023-05-28T09:08:09;102269.53;;;20.52;45.93
80401;BME280;69727;53.132;8.230;2023-05-28T09:10:36;102261.22;;;20.58;44.27
80401;BME280;69727;53.132;8.230;2023-05-28T09:13:02;102269.59;;;20.74;43.97
80401;BME280;69727;53.132;8.230;2023-05-28T09:15:28;102270.03;;;20.85;43.42
80401;BME280;69727;53.132;8.230;2023-05-28T09:17:59;102269.69;;;20.95;43.02
80401;BME280;69727;53.132;8.230;2023-05-28T09:20:25;102274.44;;;21.10;43.33
80401;BME280;69727;53.132;8.230;2023-05-28T09:25:24;102263.97;;;21.24;42.62
80401;BME280;69727;53.132;8.230;2023-05-28T09:27:50;102275.84;;;21.41;41.80
80401;BME280;69727;53.132;8.230;2023-05-28T09:30:15;102283.03;;;21.40;41.64
80401;BME280;69727;53.132;8.230;2023-05-28T09:32:41;102288.75;;;21.55;40.75
80401;BME280;69727;53.132;8.230;2023-05-28T09:35:06;102287.56;;;21.62;41.65
80401;BME280;69727;53.132;8.230;2023-05-28T09:37:34;102283.44;;;21.74;40.82
80401;BME280;69727;53.132;8.230;2023-05-28T09:40:03;102284.16;;;21.79;40.80
80401;BME280;69727;53.132;8.230;2023-05-28T09:42:40;102284.06;;;22.01;39.92
80401;BME280;69727;53.132;8.230;2023-05-28T09:45:08;102272.31;;;22.04;40.74
80401;BME280;69727;53.132;8.230;2023-05-28T09:47:44;102275.19;;;22.20;39.89
80401;BME280;69727;53.132;8.230;2023-05-28T09:50:10;102266.50;;;22.34;40.29
80401;BME280;69727;53.132;8.230;2023-05-28T09:52:38;102273.78;;;22.50;39.04
80401;BME280;69727;53.132;8.230;2023-05-28T09:55:07;102273.19;;;22.63;38.33
80401;BME280;69727;53.132;8.230;2023-05-28T09:57:33;102261.13;;;22.72;37.65
80401;BME280;69727;53.132;8.230;2023-05-28T10:00:01;102269.13;;;22.92;38.00
80401;BME280;69727;53.132;8.230;2023-05-28T10:05:32;102271.84;;;23.29;36.67
80401;BME280;69727;53.132;8.230;2023-05-28T10:08:00;102281.63;;;23.49;35.95
80401;BME280;69727;53.132;8.230;2023-05-28T10:10:28;102270.69;;;23.69;35.69
80401;BME280;69727;53.132;8.230;2023-05-28T10:12:55;102259.72;;;23.72;34.67
80401;BME280;69727;53.132;8.230;2023-05-28T10:15:22;102256.41;;;23.85;34.88
80401;BME280;69727;53.132;8.230;2023-05-28T10:17:49;102264.06;;;24.10;35.60
80401;BME280;69727;53.132;8.230;2023-05-28T10:20:14;102259.28;;;24.33;33.58
80401;BME280;69727;53.132;8.230;2023-05-28T10:22:41;102265.31;;;24.54;32.88
80401;BME280;69727;53.132;8.230;2023-05-28T10:25:07;102247.91;;;24.59;32.01
80401;BME280;69727;53.132;8.230;2023-05-28T10:27:36;102268.47;;;24.62;32.40
80401;BME280;69727;53.132;8.230;2023-05-28T10:30:03;102255.78;;;24.64;32.26
80401;BME280;69727;53.132;8.230;2023-05-28T10:32:29;102261.00;;;24.83;30.97
80401;BME280;69727;53.132;8.230;2023-05-28T10:35:01;102254.63;;;25.00;32.09
80401;BME280;69727;53.132;8.230;2023-05-28T10:37:27;102260.09;;;25.14;30.38
80401;BME280;69727;53.132;8.230;2023-05-28T10:39:52;102262.03;;;25.28;29.99
80401;BME280;69727;53.132;8.230;2023-05-28T10:42:18;102259.47;;;25.09;30.30
80401;BME280;69727;53.132;8.230;2023-05-28T10:45:08;102255.66;;;24.97;30.81
80401;BME280;69727;53.132;8.230;2023-05-28T10:47:40;102264.44;;;25.17;30.62
80401;BME280;69727;53.132;8.230;2023-05-28T10:52:34;102276.22;;;25.48;28.14
80401;BME280;69727;53.132;8.230;2023-05-28T10:55:07;102257.75;;;25.54;26.55
80401;BME280;69727;53.132;8.230;2023-05-28T11:00:09;102266.72;;;25.85;29.12
80401;BME280;69727;53.132;8.230;2023-05-28T11:02:44;102260.84;;;25.93;27.07
80401;BME280;69727;53.132;8.230;2023-05-28T11:05:12;102270.25;;;26.02;25.48
80401;BME280;69727;53.132;8.230;2023-05-28T11:07:41;102254.50;;;26.08;25.97
80401;BME280;69727;53.132;8.230;2023-05-28T11:10:09;102258.47;;;26.17;26.39
80401;BME280;69727;53.132;8.230;2023-05-28T11:12:38;102268.44;;;26.31;25.81
80401;BME280;69727;53.132;8.230;2023-05-28T11:15:04;102278.91;;;26.37;24.11
80401;BME280;69727;53.132;8.230;2023-05-28T11:17:38;102261.00;;;26.49;24.14
80401;BME280;69727;53.132;8.230;2023-05-28T11:20:04;102270.38;;;26.43;24.64
80401;BME280;69727;53.132;8.230;2023-05-28T11:22:34;102259.72;;;26.40;22.36
80401;BME280;69727;53.132;8.230;2023-05-28T11:25:07;102255.47;;;26.51;23.03
80401;BME280;69727;53.132;8.230;2023-05-28T11:27:35;102252.66;;;26.67;21.05
80401;BME280;69727;53.132;8.230;2023-05-28T11:30:15;102259.09;;;26.93;21.79
80401;BME280;69727;53.132;8.230;2023-05-28T11:32:42;102253.03;;;27.02;21.37
80401;BME280;69727;53.132;8.230;2023-05-28T11:35:17;102254.16;;;27.12;21.61
80401;BME280;69727;53.132;8.230;2023-05-28T11:37:44;102257.31;;;27.19;21.45
80401;BME280;69727;53.132;8.230;2023-05-28T11:40:11;102258.16;;;27.07;21.45
80401;BME280;69727;53.132;8.230;2023-05-28T11:42:38;102261.47;;;27.25;23.03
80401;BME280;69727;53.132;8.230;2023-05-28T11:45:05;102255.25;;;27.37;22.77
80401;BME280;69727;53.132;8.230;2023-05-28T11:47:32;102264.69;;;27.31;22.48
80401;BME280;69727;53.132;8.230;2023-05-28T11:49:58;102275.53;;;27.59;22.29
80401;BME280;69727;53.132;8.230;2023-05-28T11:52:24;102265.38;;;27.48;21.52
80401;BME280;69727;53.132;8.230;2023-05-28T11:54:56;102258.75;;;27.52;21.41
80401;BME280;69727;53.132;8.230;2023-05-28T11:57:26;102249.00;;;27.62;21.63
80401;BME280;69727;53.132;8.230;2023-05-28T11:59:59;102261.38;;;27.66;21.54
80401;BME280;69727;53.132;8.230;2023-05-28T12:02:25;102259.88;;;27.88;22.25
80401;BME280;69727;53.132;8.230;2023-05-28T12:05:00;102253.06;;;28.08;21.36
80401;BME280;69727;53.132;8.230;2023-05-28T12:07:32;102254.28;;;28.17;19.04
80401;BME280;69727;53.132;8.230;2023-05-28T12:10:02;102264.59;;;28.12;19.94
80401;BME280;69727;53.132;8.230;2023-05-28T12:12:28;102253.72;;;27.99;19.84
80401;BME280;69727;53.132;8.230;2023-05-28T12:15:03;102249.81;;;28.03;19.41
80401;BME280;69727;53.132;8.230;2023-05-28T12:17:34;102242.22;;;27.95;19.29
80401;BME280;69727;53.132;8.230;2023-05-28T12:22:41;102236.19;;;28.29;19.48
80401;BME280;69727;53.132;8.230;2023-05-28T12:25:07;102239.88;;;28.40;20.01
80401;BME280;69727;53.132;8.230;2023-05-28T12:27:33;102235.22;;;28.30;19.48
80401;BME280;69727;53.132;8.230;2023-05-28T12:29:58;102223.13;;;28.21;19.07
80401;BME280;69727;53.132;8.230;2023-05-28T12:32:24;102232.66;;;28.52;18.50
80401;BME280;69727;53.132;8.230;2023-05-28T12:34:49;102236.50;;;28.37;18.27
80401;BME280;69727;53.132;8.230;2023-05-28T12:37:17;102240.22;;;28.36;19.79
80401;BME280;69727;53.132;8.230;2023-05-28T12:39:42;102245.97;;;28.44;20.66
80401;BME280;69727;53.132;8.230;2023-05-28T12:42:08;102237.00;;;28.68;21.96
80401;BME280;69727;53.132;8.230;2023-05-28T12:44:33;102241.75;;;28.77;20.75
80401;BME280;69727;53.132;8.230;2023-05-28T12:46:58;102246.41;;;28.88;20.32
80401;BME280;69727;53.132;8.230;2023-05-28T12:49:24;102231.59;;;28.92;21.03
80401;BME280;69727;53.132;8.230;2023-05-28T12:51:50;102234.94;;;28.96;23.59
80401;BME280;69727;53.132;8.230;2023-05-28T12:54:15;102229.53;;;29.07;23.92
80401;BME280;69727;53.132;8.230;2023-05-28T12:56:40;102226.88;;;28.94;24.33
80401;BME280;69727;53.132;8.230;2023-05-28T12:59:06;102230.00;;;28.76;25.32
80401;BME280;69727;53.132;8.230;2023-05-28T13:01:31;102236.31;;;28.77;26.36